sensor_id;sensor_type;location;lat;lon;timestamp;temperature;humidity
8463;DHT22;4268;52.506;13.462;2023-12-04T00:00:08;-2.70;99.90
8463;DHT22;4268;52.506;13.462;2023-12-04T00:02:34;-2.80;99.90
8463;DHT22;4268;52.506;13.462;2023-12-04T00:04:59;-2.90;99.90
8463;DHT22;4268;52.506;13.462;2023-12-04T00:07:25;-2.90;99.90
8463;DHT22;4268;52.506;13.462;2023-12-04T00:09:50;-2.90;99.90
8463;DHT22;4268;52.506;13.462;2023-12-04T00:12:16;-2.90;99.90
8463;DHT22;4268;52.506;13.462;2023-12-04T00:14:41;-3.00;99.90
8463;DHT22;4268;52.506;13.462;2023-12-04T00:17:07;-3.00;99.90
8463;DHT22;4268;52.506;13.462;2023-12-04T00:19:32;-3.00;99.90
8463;DHT22;4268;52.506;13.462;2023-12-04T00:21:58;-3.00;99.90
8463;DHT22;4268;52.506;13.462;2023-12-04T00:24:23;-3.00;99.90
8463;DHT22;4268;52.506;13.462;2023-12-04T00:26:49;-3.00;99.90
8463;DHT22;4268;52.506;13.462;2023-12-04T00:29:14;-3.10;99.90
8463;DHT22;4268;52.506;13.462;2023-12-04T00:31:40;-3.10;99.90
8463;DHT22;4268;52.506;13.462;2023-12-04T00:34:05;-3.10;99.90
8463;DHT22;4268;52.506;13.462;2023-12-04T00:36:31;-3.20;99.90
8463;DHT22;4268;52.506;13.462;2023-12-04T00:38:56;-3.20;99.90
8463;DHT22;4268;52.506;13.462;2023-12-04T00:41:22;-3.20;99.90
8463;DHT22;4268;52.506;13.462;2023-12-04T00:43:47;-3.20;99.90
8463;DHT22;4268;52.506;13.462;2023-12-04T00:46:13;-3.20;99.90
8463;DHT22;4268;52.506;13.462;2023-12-04T00:48:38;-3.20;99.90
8463;DHT22;4268;52.506;13.462;2023-12-04T00:51:04;-3.80;99.90
8463;DHT22;4268;52.506;13.462;2023-12-04T00:53:30;-3.20;99.90
8463;DHT22;4268;52.506;13.462;2023-12-04T00:55:55;-3.20;99.90
8463;DHT22;4268;52.506;13.462;2023-12-04T00:58:21;-3.30;99.90
8463;DHT22;4268;52.506;13.462;2023-12-04T01:00:46;-3.30;99.90
8463;DHT22;4268;52.506;13.462;2023-12-04T01:03:14;-3.30;99.90
8463;DHT22;4268;52.506;13.462;2023-12-04T01:05:40;-3.30;99.90
8463;DHT22;4268;52.506;13.462;2023-12-04T01:08:05;-3.30;99.90
8463;DHT22;4268;52.506;13.462;2023-12-04T01:10:31;-3.30;99.90
8463;DHT22;4268;52.506;13.462;2023-12-04T01:12:56;-1.60;99.90
8463;DHT22;4268;52.506;13.462;2023-12-04T01:15:22;-3.30;99.90
8463;DHT22;4268;52.506;13.462;2023-12-04T01:17:49;-3.30;99.90
8463;DHT22;4268;52.506;13.462;2023-12-04T01:20:14;-3.30;99.90
8463;DHT22;4268;52.506;13.462;2023-12-04T01:22:40;-3.20;99.90
8463;DHT22;4268;52.506;13.462;2023-12-04T01:25:06;-3.30;99.90
8463;DHT22;4268;52.506;13.462;2023-12-04T01:27:32;-3.30;99.90
8463;DHT22;4268;52.506;13.462;2023-12-04T01:30:00;-3.40;99.90
8463;DHT22;4268;52.506;13.462;2023-12-04T01:32:26;-3.40;99.90
8463;DHT22;4268;52.506;13.462;2023-12-04T01:34:51;-3.40;99.90
8463;DHT22;4268;52.506;13.462;2023-12-04T01:37:17;-3.50;99.90
8463;DHT22;4268;52.506;13.462;2023-12-04T01:39:43;-4.70;99.90
8463;DHT22;4268;52.506;13.462;2023-12-04T01:42:09;-5.20;99.90
8463;DHT22;4268;52.506;13.462;2023-12-04T01:44:35;-3.50;99.90
8463;DHT22;4268;52.506;13.462;2023-12-04T01:47:02;-3.60;99.90
8463;DHT22;4268;52.506;13.462;2023-12-04T01:49:28;-3.50;99.90
8463;DHT22;4268;52.506;13.462;2023-12-04T01:51:53;-3.90;99.90
8463;DHT22;4268;52.506;13.462;2023-12-04T01:54:19;-3.50;99.90
8463;DHT22;4268;52.506;13.462;2023-12-04T01:56:46;-3.50;99.90
8463;DHT22;4268;52.506;13.462;2023-12-04T01:59:12;-3.60;99.90
8463;DHT22;4268;52.506;13.462;2023-12-04T02:01:39;-3.50;99.90
8463;DHT22;4268;52.506;13.462;2023-12-04T02:04:06;-3.60;99.90
8463;DHT22;4268;52.506;13.462;2023-12-04T02:06:31;-3.50;99.90
8463;DHT22;4268;52.506;13.462;2023-12-04T02:08:57;-3.50;99.90
8463;DHT22;4268;52.506;13.462;2023-12-04T02:11:23;-3.50;99.90
8463;DHT22;4268;52.506;13.462;2023-12-04T02:13:48;-3.20;99.90
8463;DHT22;4268;52.506;13.462;2023-12-04T02:16:15;-3.60;99.90
8463;DHT22;4268;52.506;13.462;2023-12-04T02:18:42;-3.50;99.90
8463;DHT22;4268;52.506;13.462;2023-12-04T02:21:08;-4.50;99.90
8463;DHT22;4268;52.506;13.462;2023-12-04T02:23:34;-3.50;99.90
8463;DHT22;4268;52.506;13.462;2023-12-04T02:26:03;-3.50;99.90
8463;DHT22;4268;52.506;13.462;2023-12-04T02:28:33;-2.90;99.90
8463;DHT22;4268;52.506;13.462;2023-12-04T02:30:59;-3.70;99.90
8463;DHT22;4268;52.506;13.462;2023-12-04T02:33:26;-5.10;99.90
8463;DHT22;4268;52.506;13.462;2023-12-04T02:35:53;-1.50;99.90
8463;DHT22;4268;52.506;13.462;2023-12-04T02:38:21;-4.60;99.90
8463;DHT22;4268;52.506;13.462;2023-12-04T02:40:46;-3.50;99.90
8463;DHT22;4268;52.506;13.462;2023-12-04T02:43:12;-3.50;99.90
8463;DHT22;4268;52.506;13.462;2023-12-04T02:45:38;-2.90;99.90
8463;DHT22;4268;52.506;13.462;2023-12-04T02:48:03;-4.40;99.90
8463;DHT22;4268;52.506;13.462;2023-12-04T02:50:29;-3.50;99.90
8463;DHT22;4268;52.506;13.462;2023-12-04T02:52:54;-3.50;99.90
8463;DHT22;4268;52.506;13.462;2023-12-04T02:55:20;-3.50;99.90
8463;DHT22;4268;52.506;13.462;2023-12-04T02:57:45;-4.00;99.90
8463;DHT22;4268;52.506;13.462;2023-12-04T03:00:11;-3.60;99.90
8463;DHT22;4268;52.506;13.462;2023-12-04T03:02:37;-3.50;99.90
8463;DHT22;4268;52.506;13.462;2023-12-04T03:05:02;-3.40;99.90
8463;DHT22;4268;52.506;13.462;2023-12-04T03:07:28;-4.80;99.90
8463;DHT22;4268;52.506;13.462;2023-12-04T03:09:53;-4.20;99.90
8463;DHT22;4268;52.506;13.462;2023-12-04T03:12:19;-3.60;99.90
8463;DHT22;4268;52.506;13.462;2023-12-04T03:14:45;-3.60;99.90
8463;DHT22;4268;52.506;13.462;2023-12-04T03:17:10;-3.60;99.90
8463;DHT22;4268;52.506;13.462;2023-12-04T03:19:36;-3.60;99.90
8463;DHT22;4268;52.506;13.462;2023-12-04T03:22:01;-3.70;99.90
8463;DHT22;4268;52.506;13.462;2023-12-04T03:24:27;-3.70;99.90
8463;DHT22;4268;52.506;13.462;2023-12-04T03:26:53;-2.70;99.90
8463;DHT22;4268;52.506;13.462;2023-12-04T03:29:18;-3.70;99.90
8463;DHT22;4268;52.506;13.462;2023-12-04T03:31:44;-3.80;99.90
8463;DHT22;4268;52.506;13.462;2023-12-04T03:34:09;-3.70;99.90
8463;DHT22;4268;52.506;13.462;2023-12-04T03:36:35;-3.60;99.90
8463;DHT22;4268;52.506;13.462;2023-12-04T03:39:00;-4.20;99.90
8463;DHT22;4268;52.506;13.462;2023-12-04T03:41:26;-3.70;99.90
8463;DHT22;4268;52.506;13.462;2023-12-04T03:43:51;-3.70;99.90
8463;DHT22;4268;52.506;13.462;2023-12-04T03:46:17;-3.70;99.90
8463;DHT22;4268;52.506;13.462;2023-12-04T03:48:43;-3.60;99.90
8463;DHT22;4268;52.506;13.462;2023-12-04T03:51:08;-3.60;99.90
8463;DHT22;4268;52.506;13.462;2023-12-04T03:53:34;-4.40;99.90
8463;DHT22;4268;52.506;13.462;2023-12-04T03:55:59;-3.60;99.90
8463;DHT22;4268;52.506;13.462;2023-12-04T03:58:25;-2.60;99.90
8463;DHT22;4268;52.506;13.462;2023-12-04T04:00:50;-3.50;99.90
8463;DHT22;4268;52.506;13.462;2023-12-04T04:03:16;-2.90;99.90
8463;DHT22;4268;52.506;13.462;2023-12-04T04:05:42;-3.50;99.90
8463;DHT22;4268;52.506;13.462;2023-12-04T04:08:07;-3.40;99.90
8463;DHT22;4268;52.506;13.462;2023-12-04T04:10:33;-3.40;99.90
8463;DHT22;4268;52.506;13.462;2023-12-04T04:12:59;-3.50;99.90
8463;DHT22;4268;52.506;13.462;2023-12-04T04:15:25;-3.40;99.90
8463;DHT22;4268;52.506;13.462;2023-12-04T04:17:53;-3.40;99.90
8463;DHT22;4268;52.506;13.462;2023-12-04T04:20:19;-3.40;99.90
8463;DHT22;4268;52.506;13.462;2023-12-04T04:22:45;-3.70;99.90
8463;DHT22;4268;52.506;13.462;2023-12-04T04:25:12;-3.40;99.90
8463;DHT22;4268;52.506;13.462;2023-12-04T04:27:38;-3.40;99.90
8463;DHT22;4268;52.506;13.462;2023-12-04T04:30:04;-2.80;99.90
8463;DHT22;4268;52.506;13.462;2023-12-04T04:32:30;-3.40;99.90
8463;DHT22;4268;52.506;13.462;2023-12-04T04:34:55;-3.50;99.90
8463;DHT22;4268;52.506;13.462;2023-12-04T04:37:21;-3.50;99.90
8463;DHT22;4268;52.506;13.462;2023-12-04T04:39:46;-3.50;99.90
8463;DHT22;4268;52.506;13.462;2023-12-04T04:42:13;-3.80;99.90
8463;DHT22;4268;52.506;13.462;2023-12-04T04:44:39;-3.30;99.90
8463;DHT22;4268;52.506;13.462;2023-12-04T04:47:05;-3.60;99.90
8463;DHT22;4268;52.506;13.462;2023-12-04T04:49:30;-3.60;99.90
8463;DHT22;4268;52.506;13.462;2023-12-04T04:51:56;-3.50;99.90
8463;DHT22;4268;52.506;13.462;2023-12-04T04:54:21;-3.50;99.90
8463;DHT22;4268;52.506;13.462;2023-12-04T04:56:47;-3.40;99.90
8463;DHT22;4268;52.506;13.462;2023-12-04T04:59:13;-2.90;99.90
8463;DHT22;4268;52.506;13.462;2023-12-04T05:01:38;-4.50;99.90
8463;DHT22;4268;52.506;13.462;2023-12-04T05:04:04;-3.40;99.90
8463;DHT22;4268;52.506;13.462;2023-12-04T05:06:29;-3.50;99.90
8463;DHT22;4268;52.506;13.462;2023-12-04T05:08:56;-3.40;99.90
8463;DHT22;4268;52.506;13.462;2023-12-04T05:11:21;-3.40;99.90
8463;DHT22;4268;52.506;13.462;2023-12-04T05:13:47;-3.40;99.90
8463;DHT22;4268;52.506;13.462;2023-12-04T05:16:13;-4.20;99.90
8463;DHT22;4268;52.506;13.462;2023-12-04T05:18:39;-1.60;99.90
8463;DHT22;4268;52.506;13.462;2023-12-04T05:21:11;-3.40;99.90
8463;DHT22;4268;52.506;13.462;2023-12-04T05:23:37;-3.40;99.90
8463;DHT22;4268;52.506;13.462;2023-12-04T05:26:03;-4.00;99.90
8463;DHT22;4268;52.506;13.462;2023-12-04T05:28:29;-3.50;99.90
8463;DHT22;4268;52.506;13.462;2023-12-04T05:30:54;-3.50;99.90
8463;DHT22;4268;52.506;13.462;2023-12-04T05:33:20;-3.60;99.90
8463;DHT22;4268;52.506;13.462;2023-12-04T05:35:49;-3.60;99.90
8463;DHT22;4268;52.506;13.462;2023-12-04T05:38:17;-3.50;99.90
8463;DHT22;4268;52.506;13.462;2023-12-04T05:40:43;-3.90;99.90
8463;DHT22;4268;52.506;13.462;2023-12-04T05:43:09;-4.90;99.90
8463;DHT22;4268;52.506;13.462;2023-12-04T05:45:34;-3.70;99.90
8463;DHT22;4268;52.506;13.462;2023-12-04T05:48:00;-3.70;99.90
8463;DHT22;4268;52.506;13.462;2023-12-04T05:50:26;-3.40;99.90
8463;DHT22;4268;52.506;13.462;2023-12-04T05:52:51;-2.40;99.90
8463;DHT22;4268;52.506;13.462;2023-12-04T05:55:17;-5.00;99.90
8463;DHT22;4268;52.506;13.462;2023-12-04T05:57:44;-3.60;99.90
8463;DHT22;4268;52.506;13.462;2023-12-04T06:00:10;-3.40;99.90
8463;DHT22;4268;52.506;13.462;2023-12-04T06:02:42;-3.40;99.90
8463;DHT22;4268;52.506;13.462;2023-12-04T06:05:08;-3.30;99.90
8463;DHT22;4268;52.506;13.462;2023-12-04T06:07:34;-3.40;99.90
8463;DHT22;4268;52.506;13.462;2023-12-04T06:10:00;-3.40;99.90
8463;DHT22;4268;52.506;13.462;2023-12-04T06:12:26;-3.40;99.90
8463;DHT22;4268;52.506;13.462;2023-12-04T06:14:51;-3.30;99.90
8463;DHT22;4268;52.506;13.462;2023-12-04T06:17:17;-3.80;99.90
8463;DHT22;4268;52.506;13.462;2023-12-04T06:19:43;-3.80;99.90
8463;DHT22;4268;52.506;13.462;2023-12-04T06:22:10;-3.20;99.90
8463;DHT22;4268;52.506;13.462;2023-12-04T06:24:39;-3.10;99.90
8463;DHT22;4268;52.506;13.462;2023-12-04T06:29:54;-3.10;99.90
8463;DHT22;4268;52.506;13.462;2023-12-04T06:32:20;-3.00;99.90
8463;DHT22;4268;52.506;13.462;2023-12-04T06:34:46;-2.90;99.90
8463;DHT22;4268;52.506;13.462;2023-12-04T06:37:13;-2.90;99.90
8463;DHT22;4268;52.506;13.462;2023-12-04T06:39:39;-2.90;99.90
8463;DHT22;4268;52.506;13.462;2023-12-04T06:42:06;-2.90;99.90
8463;DHT22;4268;52.506;13.462;2023-12-04T06:44:32;-2.90;99.90
8463;DHT22;4268;52.506;13.462;2023-12-04T06:47:00;-2.80;99.90
8463;DHT22;4268;52.506;13.462;2023-12-04T06:49:29;-4.30;99.90
8463;DHT22;4268;52.506;13.462;2023-12-04T06:51:55;-2.80;99.90
8463;DHT22;4268;52.506;13.462;2023-12-04T06:54:21;-2.80;99.90
8463;DHT22;4268;52.506;13.462;2023-12-04T06:56:46;-2.70;99.90
8463;DHT22;4268;52.506;13.462;2023-12-04T06:59:12;-2.70;99.90
8463;DHT22;4268;52.506;13.462;2023-12-04T07:01:38;-2.70;99.90
8463;DHT22;4268;52.506;13.462;2023-12-04T07:04:03;-2.70;99.90
8463;DHT22;4268;52.506;13.462;2023-12-04T07:06:38;-2.70;99.90
8463;DHT22;4268;52.506;13.462;2023-12-04T07:09:04;-2.70;99.90
8463;DHT22;4268;52.506;13.462;2023-12-04T07:11:31;-2.70;99.90
8463;DHT22;4268;52.506;13.462;2023-12-04T07:13:56;-2.60;99.90
8463;DHT22;4268;52.506;13.462;2023-12-04T07:16:22;-2.60;99.90
8463;DHT22;4268;52.506;13.462;2023-12-04T07:18:47;-2.60;99.90
8463;DHT22;4268;52.506;13.462;2023-12-04T07:21:13;-2.60;99.90
8463;DHT22;4268;52.506;13.462;2023-12-04T07:23:39;-2.60;99.90
8463;DHT22;4268;52.506;13.462;2023-12-04T07:26:04;-2.60;99.90
8463;DHT22;4268;52.506;13.462;2023-12-04T07:28:32;-2.60;99.90
8463;DHT22;4268;52.506;13.462;2023-12-04T07:30:57;-2.60;99.90
8463;DHT22;4268;52.506;13.462;2023-12-04T07:33:23;-2.20;99.90
8463;DHT22;4268;52.506;13.462;2023-12-04T07:35:48;-2.60;99.90
8463;DHT22;4268;52.506;13.462;2023-12-04T07:38:14;-2.50;99.90
8463;DHT22;4268;52.506;13.462;2023-12-04T07:40:39;-2.50;99.90
8463;DHT22;4268;52.506;13.462;2023-12-04T07:43:05;-2.40;99.90
8463;DHT22;4268;52.506;13.462;2023-12-04T07:45:30;-2.40;99.90
8463;DHT22;4268;52.506;13.462;2023-12-04T07:47:56;-2.40;99.90
8463;DHT22;4268;52.506;13.462;2023-12-04T07:50:21;-2.30;99.90
8463;DHT22;4268;52.506;13.462;2023-12-04T07:52:47;-2.30;99.90
8463;DHT22;4268;52.506;13.462;2023-12-04T07:55:12;-2.20;99.90
8463;DHT22;4268;52.506;13.462;2023-12-04T07:57:38;-2.20;99.90
8463;DHT22;4268;52.506;13.462;2023-12-04T08:00:04;-2.20;99.90
8463;DHT22;4268;52.506;13.462;2023-12-04T08:02:30;-2.10;99.90
8463;DHT22;4268;52.506;13.462;2023-12-04T08:04:56;-2.10;99.90
8463;DHT22;4268;52.506;13.462;2023-12-04T08:07:21;-2.00;99.90
8463;DHT22;4268;52.506;13.462;2023-12-04T08:09:47;-2.00;99.90
8463;DHT22;4268;52.506;13.462;2023-12-04T08:12:12;-2.00;99.90
8463;DHT22;4268;52.506;13.462;2023-12-04T08:14:38;-2.00;99.90
8463;DHT22;4268;52.506;13.462;2023-12-04T08:17:03;-1.90;99.90
8463;DHT22;4268;52.506;13.462;2023-12-04T08:19:29;-1.80;99.90
8463;DHT22;4268;52.506;13.462;2023-12-04T08:21:55;-1.80;99.90
8463;DHT22;4268;52.506;13.462;2023-12-04T08:24:20;-1.70;99.90
8463;DHT22;4268;52.506;13.462;2023-12-04T08:26:46;-1.70;99.90
8463;DHT22;4268;52.506;13.462;2023-12-04T08:29:12;-1.70;99.90
8463;DHT22;4268;52.506;13.462;2023-12-04T08:31:38;-1.60;99.90
8463;DHT22;4268;52.506;13.462;2023-12-04T08:34:03;-1.60;99.90
8463;DHT22;4268;52.506;13.462;2023-12-04T08:36:29;-1.50;99.90
8463;DHT22;4268;52.506;13.462;2023-12-04T08:38:55;-1.40;99.90
8463;DHT22;4268;52.506;13.462;2023-12-04T08:41:20;-1.40;99.90
8463;DHT22;4268;52.506;13.462;2023-12-04T08:43:46;-1.30;99.90
8463;DHT22;4268;52.506;13.462;2023-12-04T08:46:13;-1.20;99.90
8463;DHT22;4268;52.506;13.462;2023-12-04T08:48:40;-1.20;99.90
8463;DHT22;4268;52.506;13.462;2023-12-04T08:51:06;-1.20;99.90
8463;DHT22;4268;52.506;13.462;2023-12-04T08:53:33;-1.10;99.90
8463;DHT22;4268;52.506;13.462;2023-12-04T08:55:59;-1.10;99.90
8463;DHT22;4268;52.506;13.462;2023-12-04T08:58:24;-1.00;99.90
8463;DHT22;4268;52.506;13.462;2023-12-04T09:00:50;-1.00;99.90
8463;DHT22;4268;52.506;13.462;2023-12-04T09:03:15;-0.90;99.90
8463;DHT22;4268;52.506;13.462;2023-12-04T09:05:42;-0.90;99.90
8463;DHT22;4268;52.506;13.462;2023-12-04T09:08:07;-0.90;99.90
8463;DHT22;4268;52.506;13.462;2023-12-04T09:10:33;-0.90;99.90
8463;DHT22;4268;52.506;13.462;2023-12-04T09:12:59;-0.90;99.90
8463;DHT22;4268;52.506;13.462;2023-12-04T09:15:24;-0.90;99.90
8463;DHT22;4268;52.506;13.462;2023-12-04T09:17:50;-1.80;99.90
8463;DHT22;4268;52.506;13.462;2023-12-04T09:20:15;-0.80;99.90
8463;DHT22;4268;52.506;13.462;2023-12-04T09:22:41;-0.80;99.90
8463;DHT22;4268;52.506;13.462;2023-12-04T09:25:07;-0.80;99.90
8463;DHT22;4268;52.506;13.462;2023-12-04T09:27:34;-0.90;99.90
8463;DHT22;4268;52.506;13.462;2023-12-04T09:29:59;-0.80;99.90
8463;DHT22;4268;52.506;13.462;2023-12-04T09:32:25;-0.80;99.90
8463;DHT22;4268;52.506;13.462;2023-12-04T09:34:50;-0.70;99.90
8463;DHT22;4268;52.506;13.462;2023-12-04T09:37:16;-0.70;99.90
8463;DHT22;4268;52.506;13.462;2023-12-04T09:39:42;-0.70;99.90
8463;DHT22;4268;52.506;13.462;2023-12-04T09:42:07;-0.70;99.90
8463;DHT22;4268;52.506;13.462;2023-12-04T09:44:34;-0.60;99.90
8463;DHT22;4268;52.506;13.462;2023-12-04T09:47:02;-0.60;99.90
8463;DHT22;4268;52.506;13.462;2023-12-04T09:49:28;-0.60;99.90
8463;DHT22;4268;52.506;13.462;2023-12-04T09:51:57;-0.50;99.90
8463;DHT22;4268;52.506;13.462;2023-12-04T09:54:22;-0.50;99.90
8463;DHT22;4268;52.506;13.462;2023-12-04T09:56:49;-0.40;99.90
8463;DHT22;4268;52.506;13.462;2023-12-04T09:59:15;-0.40;99.90
8463;DHT22;4268;52.506;13.462;2023-12-04T10:01:43;-0.40;99.90
8463;DHT22;4268;52.506;13.462;2023-12-04T10:04:10;-0.30;99.90
8463;DHT22;4268;52.506;13.462;2023-12-04T10:06:37;-0.30;99.90
8463;DHT22;4268;52.506;13.462;2023-12-04T10:09:03;-0.30;99.90
8463;DHT22;4268;52.506;13.462;2023-12-04T10:11:29;-0.20;99.90
8463;DHT22;4268;52.506;13.462;2023-12-04T10:13:55;-0.10;99.90
8463;DHT22;4268;52.506;13.462;2023-12-04T10:16:35;-0.10;99.90
8463;DHT22;4268;52.506;13.462;2023-12-04T10:19:15;0.00;99.90
8463;DHT22;4268;52.506;13.462;2023-12-04T10:21:44;0.00;99.90
8463;DHT22;4268;52.506;13.462;2023-12-04T10:24:10;0.00;99.90
8463;DHT22;4268;52.506;13.462;2023-12-04T10:26:36;0.00;99.90
8463;DHT22;4268;52.506;13.462;2023-12-04T10:29:03;0.00;99.90
8463;DHT22;4268;52.506;13.462;2023-12-04T10:31:34;0.10;99.90
8463;DHT22;4268;52.506;13.462;2023-12-04T10:34:01;0.10;99.90
8463;DHT22;4268;52.506;13.462;2023-12-04T10:36:27;0.20;99.90
8463;DHT22;4268;52.506;13.462;2023-12-04T10:38:59;0.30;99.90
8463;DHT22;4268;52.506;13.462;2023-12-04T10:41:26;0.40;99.90
8463;DHT22;4268;52.506;13.462;2023-12-04T10:43:51;0.50;99.90
8463;DHT22;4268;52.506;13.462;2023-12-04T10:46:17;0.50;99.90
8463;DHT22;4268;52.506;13.462;2023-12-04T10:48:45;0.50;99.90
8463;DHT22;4268;52.506;13.462;2023-12-04T10:51:12;0.60;99.90
8463;DHT22;4268;52.506;13.462;2023-12-04T10:53:37;0.50;99.90
8463;DHT22;4268;52.506;13.462;2023-12-04T10:56:05;0.50;99.90
8463;DHT22;4268;52.506;13.462;2023-12-04T10:58:31;0.50;99.90
8463;DHT22;4268;52.506;13.462;2023-12-04T11:00:58;0.50;99.90
8463;DHT22;4268;52.506;13.462;2023-12-04T11:03:32;0.60;99.90
8463;DHT22;4268;52.506;13.462;2023-12-04T11:06:02;0.60;99.90
8463;DHT22;4268;52.506;13.462;2023-12-04T11:08:32;0.60;99.90
8463;DHT22;4268;52.506;13.462;2023-12-04T11:11:04;0.50;99.90
8463;DHT22;4268;52.506;13.462;2023-12-04T11:13:35;0.50;99.90
8463;DHT22;4268;52.506;13.462;2023-12-04T11:16:02;0.50;99.90
8463;DHT22;4268;52.506;13.462;2023-12-04T11:18:36;0.50;99.90
8463;DHT22;4268;52.506;13.462;2023-12-04T11:21:08;0.50;99.90
8463;DHT22;4268;52.506;13.462;2023-12-04T11:23:35;0.40;99.90
8463;DHT22;4268;52.506;13.462;2023-12-04T11:26:01;0.50;99.90
8463;DHT22;4268;52.506;13.462;2023-12-04T11:28:29;0.50;99.90
8463;DHT22;4268;52.506;13.462;2023-12-04T11:30:55;0.50;99.90
8463;DHT22;4268;52.506;13.462;2023-12-04T11:33:21;0.50;99.90
8463;DHT22;4268;52.506;13.462;2023-12-04T11:35:46;0.50;99.90
8463;DHT22;4268;52.506;13.462;2023-12-04T11:38:15;0.40;99.90
8463;DHT22;4268;52.506;13.462;2023-12-04T11:40:41;0.40;99.90
8463;DHT22;4268;52.506;13.462;2023-12-04T11:43:26;0.50;99.90
8463;DHT22;4268;52.506;13.462;2023-12-04T11:45:53;0.50;99.90
8463;DHT22;4268;52.506;13.462;2023-12-04T11:48:25;0.50;99.90
8463;DHT22;4268;52.506;13.462;2023-12-04T11:50:50;0.60;99.90
8463;DHT22;4268;52.506;13.462;2023-12-04T11:53:16;0.60;99.90
8463;DHT22;4268;52.506;13.462;2023-12-04T11:55:42;0.60;99.90
8463;DHT22;4268;52.506;13.462;2023-12-04T11:58:11;0.70;99.90
8463;DHT22;4268;52.506;13.462;2023-12-04T12:00:37;0.70;99.90
8463;DHT22;4268;52.506;13.462;2023-12-04T12:03:07;0.70;99.90
8463;DHT22;4268;52.506;13.462;2023-12-04T12:05:35;0.70;99.90
8463;DHT22;4268;52.506;13.462;2023-12-04T12:08:05;0.70;99.90
8463;DHT22;4268;52.506;13.462;2023-12-04T12:10:32;0.70;99.90
8463;DHT22;4268;52.506;13.462;2023-12-04T12:12:58;0.80;99.90
8463;DHT22;4268;52.506;13.462;2023-12-04T12:15:24;0.80;99.90
8463;DHT22;4268;52.506;13.462;2023-12-04T12:17:50;0.80;99.90
8463;DHT22;4268;52.506;13.462;2023-12-04T12:20:16;0.80;99.90
8463;DHT22;4268;52.506;13.462;2023-12-04T12:22:42;0.80;99.90
8463;DHT22;4268;52.506;13.462;2023-12-04T12:25:11;0.80;99.90
8463;DHT22;4268;52.506;13.462;2023-12-04T12:27:38;0.70;99.90
8463;DHT22;4268;52.506;13.462;2023-12-04T12:30:04;0.70;99.90
8463;DHT22;4268;52.506;13.462;2023-12-04T12:32:36;0.70;99.90
8463;DHT22;4268;52.506;13.462;2023-12-04T12:35:02;0.70;99.90
8463;DHT22;4268;52.506;13.462;2023-12-04T12:37:28;0.80;99.90
8463;DHT22;4268;52.506;13.462;2023-12-04T12:39:54;0.80;99.90
8463;DHT22;4268;52.506;13.462;2023-12-04T12:42:27;0.80;99.90
8463;DHT22;4268;52.506;13.462;2023-12-04T12:44:54;0.80;99.90
8463;DHT22;4268;52.506;13.462;2023-12-04T12:47:20;0.80;99.90
8463;DHT22;4268;52.506;13.462;2023-12-04T12:49:46;0.80;99.90
8463;DHT22;4268;52.506;13.462;2023-12-04T12:52:12;0.80;99.90
8463;DHT22;4268;52.506;13.462;2023-12-04T12:54:43;0.90;99.90
8463;DHT22;4268;52.506;13.462;2023-12-04T12:57:10;0.90;99.90
8463;DHT22;4268;52.506;13.462;2023-12-04T12:59:38;0.90;99.90
8463;DHT22;4268;52.506;13.462;2023-12-04T13:02:04;0.90;99.90
8463;DHT22;4268;52.506;13.462;2023-12-04T13:04:37;0.80;99.90
8463;DHT22;4268;52.506;13.462;2023-12-04T13:07:04;0.80;99.90
8463;DHT22;4268;52.506;13.462;2023-12-04T13:09:31;0.80;99.90
8463;DHT22;4268;52.506;13.462;2023-12-04T13:11:57;0.80;99.90
8463;DHT22;4268;52.506;13.462;2023-12-04T13:14:23;0.80;99.90
8463;DHT22;4268;52.506;13.462;2023-12-04T13:16:50;0.80;99.90
8463;DHT22;4268;52.506;13.462;2023-12-04T13:19:15;0.70;99.90
8463;DHT22;4268;52.506;13.462;2023-12-04T13:21:45;0.70;99.90
8463;DHT22;4268;52.506;13.462;2023-12-04T13:24:11;0.70;99.90
8463;DHT22;4268;52.506;13.462;2023-12-04T13:26:37;0.70;99.90
8463;DHT22;4268;52.506;13.462;2023-12-04T13:29:03;0.60;99.90
8463;DHT22;4268;52.506;13.462;2023-12-04T13:31:28;0.60;99.90
8463;DHT22;4268;52.506;13.462;2023-12-04T13:33:54;0.60;99.90
8463;DHT22;4268;52.506;13.462;2023-12-04T13:36:20;0.50;99.90
8463;DHT22;4268;52.506;13.462;2023-12-04T13:38:45;0.50;99.90
8463;DHT22;4268;52.506;13.462;2023-12-04T13:41:11;0.50;99.90
8463;DHT22;4268;52.506;13.462;2023-12-04T13:43:55;0.50;99.90
8463;DHT22;4268;52.506;13.462;2023-12-04T13:46:21;0.50;99.90
8463;DHT22;4268;52.506;13.462;2023-12-04T13:48:48;0.40;99.90
8463;DHT22;4268;52.506;13.462;2023-12-04T13:51:13;0.40;99.90
8463;DHT22;4268;52.506;13.462;2023-12-04T13:53:40;0.40;99.90
8463;DHT22;4268;52.506;13.462;2023-12-04T13:56:10;0.40;99.90
8463;DHT22;4268;52.506;13.462;2023-12-04T13:58:54;0.40;99.90
8463;DHT22;4268;52.506;13.462;2023-12-04T14:01:26;0.40;99.90
8463;DHT22;4268;52.506;13.462;2023-12-04T14:03:55;0.30;99.90
8463;DHT22;4268;52.506;13.462;2023-12-04T14:06:30;0.30;99.90
8463;DHT22;4268;52.506;13.462;2023-12-04T14:08:56;0.30;99.90
8463;DHT22;4268;52.506;13.462;2023-12-04T14:11:23;0.30;99.90
8463;DHT22;4268;52.506;13.462;2023-12-04T14:13:49;0.20;99.90
8463;DHT22;4268;52.506;13.462;2023-12-04T14:16:15;0.20;99.90
8463;DHT22;4268;52.506;13.462;2023-12-04T14:18:41;0.20;99.90
8463;DHT22;4268;52.506;13.462;2023-12-04T14:21:11;0.10;99.90
8463;DHT22;4268;52.506;13.462;2023-12-04T14:23:37;0.10;99.90
8463;DHT22;4268;52.506;13.462;2023-12-04T14:26:03;0.10;99.90
8463;DHT22;4268;52.506;13.462;2023-12-04T14:28:28;0.10;99.90
8463;DHT22;4268;52.506;13.462;2023-12-04T14:30:54;0.10;99.90
8463;DHT22;4268;52.506;13.462;2023-12-04T14:33:21;0.10;99.90
8463;DHT22;4268;52.506;13.462;2023-12-04T14:35:46;0.00;99.90
8463;DHT22;4268;52.506;13.462;2023-12-04T14:38:12;0.00;99.90
8463;DHT22;4268;52.506;13.462;2023-12-04T14:40:38;0.00;99.90
8463;DHT22;4268;52.506;13.462;2023-12-04T14:43:04;0.10;99.90
8463;DHT22;4268;52.506;13.462;2023-12-04T14:45:35;0.10;99.90
8463;DHT22;4268;52.506;13.462;2023-12-04T14:48:01;0.10;99.90
8463;DHT22;4268;52.506;13.462;2023-12-04T14:50:27;0.00;99.90
8463;DHT22;4268;52.506;13.462;2023-12-04T14:52:53;0.00;99.90
8463;DHT22;4268;52.506;13.462;2023-12-04T14:55:21;0.00;99.90
8463;DHT22;4268;52.506;13.462;2023-12-04T14:57:52;-0.10;99.90
8463;DHT22;4268;52.506;13.462;2023-12-04T15:00:27;-0.10;99.90
8463;DHT22;4268;52.506;13.462;2023-12-04T15:03:11;-0.10;99.90
8463;DHT22;4268;52.506;13.462;2023-12-04T15:06:00;-0.20;99.90
8463;DHT22;4268;52.506;13.462;2023-12-04T15:08:51;-0.20;99.90
8463;DHT22;4268;52.506;13.462;2023-12-04T15:11:35;-0.10;99.90
8463;DHT22;4268;52.506;13.462;2023-12-04T15:14:12;-0.10;99.90
8463;DHT22;4268;52.506;13.462;2023-12-04T15:17:02;-0.20;99.90
8463;DHT22;4268;52.506;13.462;2023-12-04T15:19:46;-0.10;99.90
8463;DHT22;4268;52.506;13.462;2023-12-04T15:22:24;-0.10;99.90
8463;DHT22;4268;52.506;13.462;2023-12-04T15:24:50;-0.10;99.90
8463;DHT22;4268;52.506;13.462;2023-12-04T15:27:15;0.00;99.90
8463;DHT22;4268;52.506;13.462;2023-12-04T15:29:41;0.00;99.90
8463;DHT22;4268;52.506;13.462;2023-12-04T15:32:07;0.00;99.90
8463;DHT22;4268;52.506;13.462;2023-12-04T15:34:33;0.00;99.90
8463;DHT22;4268;52.506;13.462;2023-12-04T15:36:59;0.00;99.90
8463;DHT22;4268;52.506;13.462;2023-12-04T15:39:24;0.00;99.90
8463;DHT22;4268;52.506;13.462;2023-12-04T15:41:50;0.00;99.90
8463;DHT22;4268;52.506;13.462;2023-12-04T15:44:15;-0.10;99.90
8463;DHT22;4268;52.506;13.462;2023-12-04T15:46:41;-0.10;99.90
8463;DHT22;4268;52.506;13.462;2023-12-04T15:49:10;-0.10;99.90